Pagina principale
METAR-TAF:

METAR-TAF

Aeroporti :

Aeroporto di Corfù-Giovanni Capodistria

Corfù, Grecia

latitudine: 39-37N, longitudine: 019-55E, altezza: 2 m

Osservazione

Il bollettino è stato emesso 28 minuti fa, alle 14:20 UTC
Vento 11 kt da sud-est
Temperature 19°C
Umidità 60%
Pressione 1010 hPa
Visibilità 10 km o più
Poco nuvoloso ad un'altezza di 2500 ft

METAR: LGKR 261420Z 14011KT 9999 FEW025 19/11 Q1010 NOSIG

Ora: 16:48 (14:48 UTC)

Previsione

Il bollettino è stato emesso 3 ore e 48 minuti fa, alle 11:00 UTC
Previsione valida dal 26 alle 12 UTC al 27 alle 12 UTC
Vento 12 kt da sud-est
Visibilità 10 km o più
Poco nuvoloso ad un'altezza di 1800 ft

TAF: LGKR 261100Z 2612/2712 14012KT 9999 FEW018

Osservazioni e previsioni meteorologiche di più di 4000 aeroporti (messaggi METAR e TAF).

Le stazioni disponibili sono rappresentate dai dischi gialli e rossi sulla carta.

Puntare il mouse per vedere il nome della stazione.

Clicca sopra per visualizzare le osservazioni e previsioni meteorologiche.

Per cambiare la mappa : fare clic sui pulsanti verdi con una croce nera per ingrandire, il pulsante verde con un trattino per diminuire, o sulla freccia verde per le mappe adiacenti.


METAR-TAF: